KEKN/EKN METAR and TAF weather

Enter ICAO airport designator
Station Type Date Time Source
KEKN METAR 2018/07/21 10:51 UTC NOAA

KEKN 211051Z AUTO 16004KT 10SM BKN100 BKN120 20/15 A2993 RMK AO2 SLP128 T02000150 TSNO


Station Type Date Time Source
KEKN Decoded METAR 2018/07/21 10:51 UTC NOAA

JENNINGS RANDOLPH FIELD, WV, United States (KEKN) 38-53N 079-51W 603M
Jul 21, 2018 - 06:51 AM EDT / 2018.07.21 1051 UTC
Wind: from the SSE (160 degrees) at 5 MPH (4 KT):0
Visibility: 10 mile(s):0
Sky conditions: mostly cloudy
Temperature: 68.0 F (20.0 C)
Dew Point: 59.0 F (15.0 C)
Relative Humidity: 72%
Pressure (altimeter): 29.93 in. Hg (1013 hPa)
ob: KEKN 211051Z AUTO 16004KT 10SM BKN100 BKN120 20/15 A2993 RMK AO2 SLP128 T02000150 TSNO
cycle: 11

Station Type Date Time Source
KEKN TAF 2018/07/21 12:22 UTC NOAA

TAF KEKN 211120Z 2112/2212 15006KT P6SM BKN100
FM211800 14007KT 5SM -SHRA VCTS BKN050CB
FM220300 14004KT 6SM BR BKN030
FM220500 VRB03KT 1/2SM FG OVC002


Example: see airport list